createdAt,value
2022-11-19T00:01:32.936Z,149626.94
2022-11-19T00:04:00.428Z,149524.91
2022-11-19T00:06:29.268Z,149518.56
2022-11-19T00:08:56.883Z,149560.63
2022-11-19T00:11:40.395Z,149581.00
2022-11-19T00:14:08.530Z,149552.97
2022-11-19T00:16:36.265Z,149445.91
2022-11-19T00:19:03.963Z,149433.16
2022-11-19T00:21:32.879Z,149445.91
2022-11-19T00:24:00.685Z,149510.94
2022-11-19T00:26:28.220Z,149495.63
2022-11-19T00:28:56.303Z,149438.28
2022-11-19T00:31:25.036Z,149479.06
2022-11-19T00:33:54.233Z,149480.34
2022-11-19T00:36:23.097Z,149412.81
2022-11-19T00:38:52.058Z,149359.28
2022-11-19T00:41:20.597Z,149354.19
2022-11-19T00:43:48.356Z,149308.34
2022-11-19T00:46:17.703Z,149303.25
2022-11-19T00:48:45.294Z,149387.31
2022-11-19T00:51:13.178Z,149398.78
2022-11-19T00:53:40.649Z,149370.75
2022-11-19T00:56:11.441Z,149405.13
2022-11-19T00:58:39.641Z,149453.56
2022-11-19T01:01:07.764Z,149405.13
2022-11-19T01:03:36.070Z,149428.09
2022-11-19T01:06:04.335Z,149355.47
2022-11-19T01:08:31.929Z,149387.31
2022-11-19T01:11:05.282Z,149402.63
2022-11-19T01:13:37.606Z,149366.91
2022-11-19T01:16:08.283Z,149317.25
2022-11-19T01:18:36.946Z,149333.81
2022-11-19T01:21:05.061Z,149259.94
2022-11-19T01:23:33.387Z,149257.44
2022-11-19T01:26:01.041Z,149203.94
2022-11-19T01:28:28.568Z,149228.13
2022-11-19T01:30:57.547Z,149244.69
2022-11-19T01:33:25.361Z,149168.28
2022-11-19T01:35:57.376Z,149127.53
2022-11-19T01:38:25.243Z,149112.25
2022-11-19T01:40:53.279Z,149163.22
2022-11-19T01:43:20.845Z,149220.47
2022-11-19T01:45:50.028Z,149223.03
2022-11-19T01:48:24.158Z,149258.66
2022-11-19T01:50:55.985Z,149295.63
2022-11-19T01:53:27.726Z,149200.13
2022-11-19T01:55:56.062Z,149153.00
2022-11-19T01:58:25.954Z,149181.00
2022-11-19T02:00:53.551Z,149224.31
2022-11-19T02:03:22.566Z,149214.13
2022-11-19T02:05:50.673Z,149107.19
2022-11-19T02:08:37.449Z,149203.94
2022-11-19T02:11:31.709Z,149144.09
2022-11-19T02:14:11.432Z,149175.94
2022-11-19T02:16:47.366Z,149202.66
2022-11-19T02:19:38.253Z,149191.22
2022-11-19T02:22:18.194Z,149198.84
2022-11-19T02:24:53.526Z,149219.19
2022-11-19T02:27:39.567Z,149257.44
2022-11-19T02:30:11.673Z,149240.88
2022-11-19T02:32:51.183Z,149252.31
2022-11-19T02:35:27.305Z,149186.09
2022-11-19T02:38:00.804Z,149127.53
2022-11-19T02:40:32.215Z,149056.31
2022-11-19T02:43:08.884Z,149089.38
2022-11-19T02:45:41.235Z,149147.94
2022-11-19T02:48:13.836Z,149102.09
2022-11-19T02:50:45.837Z,149038.47
2022-11-19T02:53:13.380Z,148979.94
2022-11-19T02:56:02.235Z,148969.78
2022-11-19T02:58:49.443Z,148952.00
2022-11-19T03:01:37.970Z,148940.50
2022-11-19T03:04:23.743Z,149013.03
2022-11-19T03:06:51.403Z,148969.78
2022-11-19T03:09:19.946Z,148953.22
2022-11-19T03:11:54.700Z,148952.00
2022-11-19T03:14:44.510Z,148978.72
2022-11-19T03:17:18.227Z,149051.19
2022-11-19T03:19:49.794Z,149063.91
2022-11-19T03:22:22.599Z,149063.91
2022-11-19T03:24:56.760Z,149058.81
2022-11-19T03:27:28.812Z,149007.94
2022-11-19T03:30:00.245Z,149033.38
2022-11-19T03:32:33.452Z,149051.19
2022-11-19T03:35:04.375Z,148991.44
2022-11-19T03:37:34.922Z,148946.88
2022-11-19T03:40:03.948Z,149080.47
2022-11-19T03:42:32.362Z,149086.81
2022-11-19T03:45:04.647Z,149104.66
2022-11-19T03:47:36.668Z,149099.53
2022-11-19T03:50:10.587Z,149020.66
2022-11-19T03:52:38.090Z,149034.66
2022-11-19T03:55:06.210Z,148920.19
2022-11-19T03:57:34.333Z,148983.78
2022-11-19T04:00:01.846Z,148977.44
2022-11-19T04:02:29.458Z,148910.03
2022-11-19T04:04:58.253Z,148903.63
2022-11-19T04:07:25.925Z,148944.34
2022-11-19T04:09:53.420Z,148974.88
2022-11-19T04:12:23.039Z,148995.22
2022-11-19T04:14:51.180Z,148883.31
2022-11-19T04:17:20.328Z,148921.47
2022-11-19T04:19:47.991Z,148931.63
2022-11-19T04:22:16.790Z,148850.22
2022-11-19T04:24:44.265Z,148888.38
2022-11-19T04:27:11.749Z,148916.34
2022-11-19T04:29:39.256Z,148938.00
2022-11-19T04:32:06.946Z,148915.06
2022-11-19T04:34:34.421Z,148879.47
2022-11-19T04:37:01.984Z,148901.09
2022-11-19T04:39:30.790Z,148832.47
2022-11-19T04:41:58.280Z,148824.81
2022-11-19T04:44:25.772Z,148846.41
2022-11-19T04:46:56.810Z,148875.66
2022-11-19T04:49:24.325Z,148865.50
2022-11-19T04:51:51.944Z,148852.78
2022-11-19T04:54:19.423Z,148871.88
2022-11-19T04:56:48.267Z,148791.78
2022-11-19T04:59:15.743Z,148826.09
2022-11-19T05:01:43.267Z,148809.53
2022-11-19T05:04:10.865Z,148743.44
2022-11-19T05:06:39.391Z,148733.28
2022-11-19T05:09:06.965Z,148718.03
2022-11-19T05:11:34.439Z,148705.34
2022-11-19T05:14:03.457Z,148762.53
2022-11-19T05:16:30.919Z,148746.00
2022-11-19T05:18:58.410Z,148779.06
2022-11-19T05:21:25.919Z,148779.06
2022-11-19T05:23:53.412Z,148801.94
2022-11-19T05:26:21.117Z,148794.28
2022-11-19T05:28:48.611Z,148753.59
2022-11-19T05:31:17.563Z,148789.22
2022-11-19T05:33:45.095Z,148777.78
2022-11-19T05:36:12.715Z,148786.66
2022-11-19T05:38:41.071Z,148801.94
2022-11-19T05:41:08.548Z,148793.00
2022-11-19T05:43:36.033Z,148738.41
2022-11-19T05:46:03.925Z,148692.63
2022-11-19T05:48:32.738Z,148690.06
2022-11-19T05:51:00.247Z,148710.44
2022-11-19T05:53:27.839Z,148733.28
2022-11-19T05:55:55.321Z,148749.81
2022-11-19T05:58:22.840Z,148681.19
2022-11-19T06:00:55.807Z,148697.72
2022-11-19T06:03:23.391Z,148707.88
2022-11-19T06:05:52.324Z,148682.47
2022-11-19T06:08:19.930Z,148737.13
2022-11-19T06:10:47.411Z,148763.81
2022-11-19T06:13:14.884Z,148705.34
2022-11-19T06:15:42.351Z,148664.66
2022-11-19T06:18:09.871Z,148714.22
2022-11-19T06:20:37.603Z,148681.19
2022-11-19T06:23:06.412Z,148624.00
2022-11-19T06:25:33.910Z,148601.16
2022-11-19T06:28:01.348Z,148649.41
2022-11-19T06:30:28.847Z,148641.81
2022-11-19T06:32:56.296Z,148654.50
2022-11-19T06:35:23.825Z,148712.97
2022-11-19T06:37:51.265Z,148728.19
2022-11-19T06:40:20.090Z,148695.19
2022-11-19T06:42:50.923Z,148667.22
2022-11-19T06:45:18.645Z,148621.47
2022-11-19T06:47:48.458Z,148617.69
2022-11-19T06:50:16.103Z,148649.41
2022-11-19T06:52:43.607Z,148674.81
2022-11-19T06:55:11.162Z,148711.72
2022-11-19T06:57:39.987Z,148746.00
2022-11-19T07:00:08.560Z,148777.78
2022-11-19T07:02:36.044Z,148812.09
2022-11-19T07:05:03.546Z,148868.06
2022-11-19T07:07:31.068Z,148899.81
2022-11-19T07:09:58.711Z,148883.31
2022-11-19T07:12:26.277Z,148868.06
2022-11-19T07:14:57.506Z,148880.75
2022-11-19T07:17:28.705Z,148911.28
2022-11-19T07:19:56.165Z,148934.16
2022-11-19T07:22:23.611Z,148957.06
2022-11-19T07:24:51.137Z,149053.75
2022-11-19T07:27:18.630Z,149071.59
2022-11-19T07:29:46.083Z,149089.38
2022-11-19T07:32:14.900Z,149094.47
2022-11-19T07:34:42.442Z,149139.00
2022-11-19T07:37:10.127Z,149173.38
2022-11-19T07:39:37.569Z,149189.94
2022-11-19T07:42:24.723Z,149201.41
2022-11-19T07:44:54.805Z,149238.31
2022-11-19T07:47:24.043Z,149234.47
2022-11-19T07:49:51.496Z,149247.19
2022-11-19T07:52:19.029Z,149280.34
2022-11-19T07:54:46.514Z,149315.97
2022-11-19T07:57:14.107Z,149355.47
2022-11-19T07:59:41.583Z,149333.81
2022-11-19T08:02:11.755Z,149346.56
2022-11-19T08:04:40.884Z,149305.81
2022-11-19T08:07:09.159Z,149349.13
2022-11-19T08:09:37.514Z,149384.78
2022-11-19T08:12:05.402Z,149389.88
2022-11-19T08:14:32.897Z,149389.88
2022-11-19T08:17:17.944Z,149468.88
2022-11-19T08:19:46.785Z,149482.91
2022-11-19T08:22:14.592Z,149484.19
2022-11-19T08:24:42.087Z,149489.25
2022-11-19T08:27:09.615Z,149504.53
2022-11-19T08:29:37.090Z,149494.34
2022-11-19T08:32:04.835Z,149514.72
2022-11-19T08:34:32.979Z,149549.16
2022-11-19T08:37:01.816Z,149545.34
2022-11-19T08:39:29.611Z,149549.16
2022-11-19T08:42:14.596Z,149592.47
2022-11-19T08:44:42.088Z,149634.56
2022-11-19T08:47:09.576Z,149621.81
2022-11-19T08:49:37.082Z,149604.00
2022-11-19T08:52:05.896Z,149657.53
2022-11-19T08:54:33.446Z,149685.56
2022-11-19T08:57:00.948Z,149708.56
2022-11-19T08:59:28.412Z,149713.63
2022-11-19T09:01:55.883Z,149718.75
2022-11-19T09:04:23.383Z,149734.06
2022-11-19T09:06:50.883Z,149759.56
2022-11-19T09:09:19.971Z,149822.06
2022-11-19T09:11:47.421Z,149817.00
2022-11-19T09:14:14.917Z,149876.94
2022-11-19T09:16:42.465Z,149892.25
2022-11-19T09:19:09.922Z,149859.06
2022-11-19T09:21:37.441Z,149925.41
2022-11-19T09:24:05.608Z,149966.25
2022-11-19T09:26:34.424Z,149963.75
2022-11-19T09:29:02.737Z,150017.38
2022-11-19T09:31:30.330Z,149966.25
2022-11-19T09:33:57.854Z,150012.25
2022-11-19T09:36:25.374Z,149982.88
2022-11-19T09:38:57.570Z,150012.25
2022-11-19T09:41:45.000Z,150040.34
2022-11-19T09:44:29.333Z,149943.31
2022-11-19T09:47:04.441Z,150021.16
2022-11-19T09:49:38.550Z,149933.09
2022-11-19T09:52:07.739Z,150009.69
2022-11-19T09:54:35.990Z,150077.38
2022-11-19T09:57:14.659Z,150051.84
2022-11-19T09:59:42.726Z,150018.59
2022-11-19T10:02:17.151Z,150007.13
2022-11-19T10:04:45.644Z,149949.72
2022-11-19T10:07:23.306Z,149938.19
2022-11-19T10:09:59.909Z,150028.84
2022-11-19T10:12:47.740Z,150111.81
2022-11-19T10:15:25.078Z,150170.59
2022-11-19T10:18:04.047Z,150216.63
2022-11-19T10:20:59.645Z,150251.09
2022-11-19T10:23:36.485Z,150254.94
2022-11-19T10:26:09.674Z,150267.72
2022-11-19T10:28:40.607Z,150300.94
2022-11-19T10:31:14.540Z,150320.13
2022-11-19T10:33:50.625Z,150362.31
2022-11-19T10:36:23.607Z,150399.38
2022-11-19T10:38:58.153Z,150419.81
2022-11-19T10:41:36.781Z,150403.22
2022-11-19T10:44:37.374Z,150408.31
2022-11-19T10:47:06.282Z,150421.09
2022-11-19T10:49:39.985Z,150436.44
2022-11-19T10:52:12.439Z,150456.94
2022-11-19T10:54:40.797Z,150505.50
2022-11-19T10:57:16.096Z,150528.50
2022-11-19T10:59:46.167Z,150500.38
2022-11-19T11:02:28.194Z,150483.78
2022-11-19T11:05:06.409Z,150508.06
2022-11-19T11:07:50.476Z,150525.94
2022-11-19T11:10:45.395Z,150515.72
2022-11-19T11:13:37.736Z,150449.22
2022-11-19T11:16:09.229Z,150366.09
2022-11-19T11:18:40.462Z,150341.84
2022-11-19T11:21:11.974Z,150336.75
2022-11-19T11:23:50.841Z,150180.81
2022-11-19T11:26:24.026Z,150279.22
2022-11-19T11:28:57.896Z,150311.19
2022-11-19T11:31:35.446Z,150428.78
2022-11-19T11:34:04.111Z,150395.53
2022-11-19T11:36:35.098Z,150462.00
2022-11-19T11:39:04.809Z,150444.16
2022-11-19T11:42:05.453Z,150508.06
2022-11-19T11:44:28.536Z,150508.06
2022-11-19T11:46:59.034Z,150495.28
2022-11-19T11:49:33.387Z,150525.94
2022-11-19T11:52:14.197Z,150537.50
2022-11-19T11:54:55.222Z,150441.56
2022-11-19T11:57:27.589Z,150502.94
2022-11-19T11:59:55.434Z,150513.16
2022-11-19T12:02:30.181Z,150477.38
2022-11-19T12:05:02.033Z,150482.50
2022-11-19T12:07:54.558Z,150488.88
2022-11-19T12:10:28.172Z,150433.88
2022-11-19T12:13:17.306Z,150471.00
2022-11-19T12:15:55.965Z,150465.88
2022-11-19T12:18:33.106Z,150395.53
2022-11-19T12:21:10.263Z,150375.09
2022-11-19T12:23:57.544Z,150300.94
2022-11-19T12:26:34.656Z,150348.25
2022-11-19T12:29:13.723Z,150277.94
2022-11-19T12:31:56.834Z,150340.56
2022-11-19T12:34:46.219Z,150363.59
2022-11-19T12:37:26.128Z,150373.81
2022-11-19T12:39:56.786Z,150363.59
2022-11-19T12:42:36.736Z,150391.69
2022-11-19T12:45:17.595Z,150384.03
2022-11-19T12:48:10.695Z,150387.88
2022-11-19T12:50:49.527Z,150308.63
2022-11-19T12:53:30.868Z,150332.91
2022-11-19T12:56:13.523Z,150349.53
2022-11-19T12:58:49.222Z,150336.75
2022-11-19T13:01:21.660Z,150341.84
2022-11-19T13:04:02.357Z,150309.91
2022-11-19T13:06:36.917Z,150326.50
2022-11-19T13:09:08.330Z,150249.81
2022-11-19T13:11:39.256Z,150234.47
2022-11-19T13:14:13.940Z,150216.63
2022-11-19T13:16:42.862Z,150226.84
2022-11-19T13:19:22.540Z,150265.16
2022-11-19T13:21:56.971Z,150257.50
2022-11-19T13:24:32.852Z,150275.38
2022-11-19T13:27:04.776Z,150257.50
2022-11-19T13:29:42.176Z,150254.94
2022-11-19T13:32:19.901Z,150233.19
2022-11-19T13:34:58.538Z,150229.41
2022-11-19T13:37:41.766Z,150238.31
2022-11-19T13:40:20.588Z,150239.59
2022-11-19T13:43:25.410Z,150224.28
2022-11-19T13:46:02.813Z,150230.69
2022-11-19T13:48:34.131Z,150229.41
2022-11-19T13:51:09.623Z,150206.38
2022-11-19T13:53:43.541Z,150216.63
2022-11-19T13:56:15.351Z,150229.41
2022-11-19T13:58:47.561Z,150219.13
2022-11-19T14:01:39.391Z,150214.06
2022-11-19T14:04:24.729Z,150171.88
2022-11-19T14:07:13.908Z,150185.94
2022-11-19T14:09:56.314Z,150160.41
2022-11-19T14:12:43.372Z,150134.84
2022-11-19T14:15:46.696Z,150039.06
2022-11-19T14:18:42.756Z,150027.56
2022-11-19T14:22:16.553Z,150019.88
2022-11-19T14:25:13.739Z,149982.88
2022-11-19T14:27:41.410Z,149970.13
2022-11-19T14:30:15.446Z,149952.22
2022-11-19T14:32:47.392Z,149942.03
2022-11-19T14:35:22.762Z,149917.78
2022-11-19T14:37:52.793Z,149910.13
2022-11-19T14:40:24.947Z,149894.81
2022-11-19T14:43:41.598Z,149887.13
2022-11-19T14:46:27.553Z,149876.94
2022-11-19T14:49:03.598Z,149850.13
2022-11-19T14:51:35.786Z,149860.34
2022-11-19T14:54:08.724Z,149841.22
2022-11-19T14:56:38.758Z,149828.47
2022-11-19T14:59:18.001Z,149830.97
2022-11-19T15:01:57.377Z,149797.81
2022-11-19T15:04:30.314Z,149786.34
2022-11-19T15:06:58.246Z,149788.91
2022-11-19T15:10:05.325Z,149779.94
2022-11-19T15:12:48.407Z,149737.84
2022-11-19T15:15:38.526Z,149686.84
2022-11-19T15:18:39.547Z,149708.56
2022-11-19T15:21:27.640Z,149675.38
2022-11-19T15:24:11.662Z,149657.53
2022-11-19T15:26:50.496Z,149624.38
2022-11-19T16:07:48.671Z,155700.16
2022-11-19T16:10:22.841Z,155224.84
2022-11-19T16:13:14.990Z,155261.22
2022-11-19T16:16:08.149Z,155101.66
2022-11-19T16:18:46.985Z,155053.59
2022-11-19T16:21:18.153Z,155030.25
2022-11-19T16:24:01.099Z,155022.47
2022-11-19T16:26:28.947Z,155014.69
2022-11-19T16:28:56.567Z,155012.09
2022-11-19T16:31:30.370Z,155004.34
2022-11-19T16:33:58.959Z,154999.13
2022-11-19T16:36:29.761Z,155009.50
2022-11-19T16:38:59.626Z,155028.97
2022-11-19T16:41:45.080Z,155076.94
2022-11-19T16:44:16.642Z,155066.56
2022-11-19T16:46:44.163Z,155056.19
2022-11-19T16:49:29.673Z,155047.13
2022-11-19T16:51:57.925Z,155028.97
2022-11-19T16:54:47.403Z,155027.66
2022-11-19T16:57:18.148Z,155022.47
2022-11-19T16:59:48.258Z,155025.06
2022-11-19T17:02:18.458Z,155026.38
2022-11-19T17:04:49.863Z,155025.06
2022-11-19T17:07:24.313Z,155035.44
2022-11-19T17:10:09.606Z,155043.22
2022-11-19T17:12:38.454Z,155051.00
2022-11-19T17:15:33.729Z,155069.16
2022-11-19T17:18:14.776Z,155083.44
2022-11-19T17:21:02.550Z,155149.63
2022-11-19T17:23:32.254Z,155139.25
2022-11-19T17:26:03.467Z,155134.06
2022-11-19T17:28:38.115Z,155122.38
2022-11-19T17:31:14.634Z,155112.03
2022-11-19T17:33:50.910Z,155100.38
2022-11-19T17:36:19.050Z,155088.66
2022-11-19T17:38:46.668Z,155088.66
2022-11-19T17:41:39.647Z,155079.53
2022-11-19T17:44:30.631Z,155078.22
2022-11-19T17:46:58.143Z,155075.63
2022-11-19T17:49:25.955Z,155074.38
2022-11-19T17:51:55.245Z,155100.38
2022-11-19T17:54:23.086Z,155092.56
2022-11-19T17:56:52.656Z,155074.38
2022-11-19T17:59:20.252Z,155056.19
2022-11-19T18:01:47.798Z,155043.22
2022-11-19T18:04:15.414Z,155052.28
2022-11-19T18:06:43.189Z,155038.03
2022-11-19T18:09:10.641Z,155035.44
2022-11-19T18:11:39.818Z,155034.16
2022-11-19T18:14:09.980Z,155030.25
2022-11-19T18:16:40.092Z,155022.47
2022-11-19T18:19:11.678Z,155021.19
2022-11-19T18:21:43.901Z,155027.66
2022-11-19T18:24:12.395Z,155017.31
2022-11-19T18:26:39.895Z,155017.31
2022-11-19T18:29:08.721Z,155014.69
2022-11-19T18:31:42.647Z,155012.09
2022-11-19T18:34:14.239Z,155006.94
2022-11-19T18:36:41.707Z,155009.50
2022-11-19T18:39:09.209Z,155006.94
2022-11-19T18:41:36.914Z,155019.91
2022-11-19T18:44:22.054Z,155009.50
2022-11-19T18:46:50.873Z,155003.03
2022-11-19T18:49:18.588Z,155006.94
2022-11-19T18:51:47.625Z,155000.44
2022-11-19T18:54:15.364Z,154999.13
2022-11-19T18:56:43.185Z,154997.81
2022-11-19T18:59:11.966Z,154993.97
2022-11-19T19:01:39.912Z,154993.97
2022-11-19T19:04:10.903Z,154991.38
2022-11-19T19:06:38.533Z,154987.47
2022-11-19T19:09:06.147Z,154986.16
2022-11-19T19:11:51.754Z,154980.97
2022-11-19T19:14:19.804Z,154983.56
2022-11-19T19:16:47.663Z,154978.41
2022-11-19T19:19:19.233Z,154977.09
2022-11-19T19:21:47.004Z,154975.81
2022-11-19T19:24:14.744Z,154974.50
2022-11-19T19:26:42.418Z,154973.19
2022-11-19T19:29:13.305Z,154973.19
2022-11-19T19:31:40.799Z,154964.16
2022-11-19T19:34:08.282Z,154964.16
2022-11-19T19:36:37.271Z,154960.22
2022-11-19T19:39:05.162Z,154960.22
2022-11-19T19:41:40.750Z,154955.03
2022-11-19T19:44:10.275Z,154952.47
2022-11-19T19:46:37.733Z,154952.47
2022-11-19T19:49:05.373Z,154949.88
2022-11-19T19:51:33.121Z,154947.28
2022-11-19T19:54:02.096Z,154944.66
2022-11-19T19:56:31.550Z,154944.66
2022-11-19T19:58:59.829Z,154938.22
2022-11-19T20:01:28.965Z,154936.91
2022-11-19T20:04:01.332Z,154934.31
2022-11-19T20:06:29.206Z,154935.59
2022-11-19T20:08:56.885Z,154930.41
2022-11-19T20:11:26.695Z,154929.09
2022-11-19T20:13:55.983Z,154929.09
2022-11-19T20:16:24.959Z,154926.56
2022-11-19T20:18:53.849Z,154926.56
2022-11-19T20:21:23.759Z,154926.56
2022-11-19T20:23:51.510Z,154926.56
2022-11-19T20:26:20.990Z,154923.94
2022-11-19T20:28:55.518Z,154926.56
2022-11-19T20:31:23.432Z,154935.59
2022-11-19T20:33:53.838Z,154936.91
2022-11-19T20:36:23.139Z,154944.66
2022-11-19T20:38:52.212Z,154942.06
2022-11-19T20:41:38.368Z,154936.91
2022-11-19T20:44:24.043Z,154935.59
2022-11-19T20:46:53.550Z,154936.91
2022-11-19T20:49:23.360Z,154939.50
2022-11-19T20:51:52.537Z,154939.50
2022-11-19T20:54:21.324Z,154939.50
2022-11-19T20:56:49.426Z,154935.59
2022-11-19T20:59:18.748Z,154934.31
2022-11-19T21:01:48.211Z,154934.31
2022-11-19T21:04:15.898Z,154933.00
2022-11-19T21:06:43.530Z,154931.72
2022-11-19T21:09:11.011Z,154929.09
2022-11-19T21:11:38.515Z,154926.56
2022-11-19T21:14:06.127Z,154930.41
2022-11-19T21:16:35.234Z,154926.56
2022-11-19T21:19:03.290Z,154925.25
2022-11-19T21:21:30.742Z,154923.94
2022-11-19T21:23:58.223Z,154918.75
2022-11-19T21:26:27.459Z,154916.16
2022-11-19T21:28:57.069Z,154917.44
2022-11-19T21:31:37.781Z,154914.84
2022-11-19T21:34:07.666Z,154916.16
2022-11-19T21:36:35.231Z,154916.16
2022-11-19T21:39:03.292Z,154916.16
2022-11-19T21:41:30.757Z,154913.53
2022-11-19T21:43:58.239Z,154913.53
2022-11-19T21:46:25.691Z,154913.53
2022-11-19T21:48:53.260Z,154911.00
2022-11-19T21:51:24.893Z,154909.69
2022-11-19T21:53:54.786Z,154907.09
2022-11-19T21:56:22.517Z,154911.00
2022-11-19T21:58:49.971Z,154905.78
2022-11-19T22:01:18.005Z,154904.47
2022-11-19T22:03:45.609Z,154905.78
2022-11-19T22:06:13.161Z,154905.78
2022-11-19T22:08:43.098Z,154899.31
2022-11-19T22:11:30.181Z,154898.03
2022-11-19T22:14:00.164Z,154901.88
2022-11-19T22:16:27.999Z,154895.44
2022-11-19T22:18:55.795Z,154898.03
2022-11-19T22:21:23.275Z,154895.44
2022-11-19T22:23:52.652Z,154895.44
2022-11-19T22:26:20.149Z,154892.81
2022-11-19T22:28:47.827Z,154895.44
2022-11-19T22:31:15.683Z,154898.03
2022-11-19T22:33:43.313Z,154891.53
2022-11-19T22:36:11.966Z,155012.09
2022-11-19T22:38:40.296Z,155027.66
2022-11-19T22:41:11.396Z,154970.59
2022-11-19T22:43:40.052Z,154942.06
2022-11-19T22:46:08.825Z,154923.94
2022-11-19T22:48:40.523Z,154913.53
2022-11-19T22:51:09.561Z,154903.19
2022-11-19T22:53:37.698Z,154900.56
2022-11-19T22:56:07.301Z,154892.81
2022-11-19T22:58:36.828Z,154890.22
2022-11-19T23:01:05.131Z,154887.63
2022-11-19T23:03:32.641Z,154882.47
2022-11-19T23:06:00.173Z,154879.84
2022-11-19T23:08:27.819Z,154881.16
2022-11-19T23:10:59.926Z,154877.25
2022-11-19T23:13:32.495Z,154877.25
2022-11-19T23:16:06.490Z,154873.34
2022-11-19T23:18:36.054Z,154874.66
2022-11-19T23:21:05.558Z,154873.34
2022-11-19T23:23:33.040Z,154869.50
2022-11-19T23:26:02.367Z,154869.50
2022-11-19T23:28:31.895Z,154866.84
2022-11-19T23:31:04.970Z,154866.84
2022-11-19T23:33:32.456Z,154865.56
2022-11-19T23:36:04.372Z,154864.25
2022-11-19T23:38:32.156Z,154864.25
2022-11-19T23:41:00.323Z,154861.66
2022-11-19T23:43:28.172Z,154864.25
2022-11-19T23:45:56.106Z,154859.03
2022-11-19T23:48:24.933Z,154856.50
2022-11-19T23:50:52.476Z,154857.78
2022-11-19T23:53:20.004Z,154856.50
2022-11-19T23:55:48.278Z,154859.03
2022-11-19T23:58:15.731Z,154855.19
